Aeroporto :
LOGIN :

Iscrizione | Disclaimer

   EN    FR    IT 

 










Sommario :    VFR   VFR Marginale   IFR   IFR Intensivo   IFR Molto Intensivo
Visibilità : 
Base nubi : 
>= 8 km
>= 3000ft
5 / 8 km
1000 / 3000 ft
1500m / 5 km
500 / 1000 ft
800 / 1500m
200 / 500 ft
< 800m
< 200 ft
Simboli :   Temporali  Nebbia  Neve Forte  Precipitazioni Forti  Vento > 20 kt
SIGMETs :   Varie  Temporali  Ghiacco  Turbolenza  Onda orograficha  Ceneri Vulcaniche






- Altitudine del aeroporto : 2697 ft
- Codice IATA : BLJ


DABT - Batna

ULTIMO METAR :
  • 171700Z 23007KT 9999 FEW020 07/00 Q1017

METARs OBSOLETI :
  • 171600Z 26007KT 9999 FEW020 09/01 Q1016
  • 171500Z 27008KT 9999 SCT020 11/01 Q1016

TAF TAF DABT
Valido dal 17 a 12 ore il 18 a 12 ore UTC


171100Z 1712/1812 26014KT 9999 FEW020TCU SCT026
TEMPO 1712/1718 FEW026CB
BECMG 1718/1720 22008KT FEW026
PROB30
TEMPO 1802/1806 VRB02KT 3000 BR FEW008



MetMap, La meteo Aeronautica in un colpo d'occhio ! - Copyright ORBIFLY Dicembre 2007 - Disclaimer

ORBIFLY MET'MAP TEAM :

Programmazione e sviluppo : Alexandra Zaïnal
Concezione e sviluppo : Baudouin d'Aumeries
Co-Programmazione e sviluppo : Marc-Olivier Méhu
Supporto tecnico e logistico : Manuel Goepfert
Aiuto per la traduzione : Arnaldo La Scala

Contatto : metmap@orbifly.com




FONTI E CREDITI :

   NOAA